createdAt,value
2017-12-17T00:01:29.599Z,96990.16
2017-12-17T00:03:57.198Z,96992.28
2017-12-17T00:06:24.809Z,97001.83
2017-12-17T00:08:52.461Z,96998.63
2017-12-17T00:11:20.026Z,97004.89
2017-12-17T00:13:47.622Z,97006.96
2017-12-17T00:16:15.272Z,97009.83
2017-12-17T00:18:43.081Z,97003.97
2017-12-17T00:21:10.684Z,97006.06
2017-12-17T00:23:38.299Z,97012.33
2017-12-17T00:26:05.933Z,97009.06
2017-12-17T00:28:33.545Z,97014.50
2017-12-17T00:31:01.185Z,97014.13
2017-12-17T00:33:28.773Z,97014.19
2017-12-17T00:35:56.372Z,97010.39
2017-12-17T00:38:23.945Z,97006.25
2017-12-17T00:40:51.560Z,97006.31
2017-12-17T00:43:19.132Z,97006.01
2017-12-17T00:45:46.702Z,97003.06
2017-12-17T00:48:14.264Z,97005.44
2017-12-17T00:50:41.905Z,97009.45
2017-12-17T00:53:09.484Z,97010.64
2017-12-17T00:55:37.079Z,97001.06
2017-12-17T00:58:04.685Z,97012.08
2017-12-17T01:00:32.288Z,97019.13
2017-12-17T01:02:59.859Z,97022.00
2017-12-17T01:05:27.879Z,97020.80
2017-12-17T01:07:55.483Z,97019.55
2017-12-17T01:10:23.061Z,97020.37
2017-12-17T01:12:50.643Z,97022.88
2017-12-17T01:15:18.305Z,97028.67
2017-12-17T01:17:45.881Z,97028.74
2017-12-17T01:20:13.445Z,97034.67
2017-12-17T01:22:41.061Z,97038.03
2017-12-17T01:25:08.659Z,97041.78
2017-12-17T01:27:36.256Z,97041.80
2017-12-17T01:30:03.863Z,97035.13
2017-12-17T01:32:31.825Z,97049.36
2017-12-17T01:34:59.402Z,97039.44
2017-12-17T01:37:27.439Z,97040.30
2017-12-17T01:39:55.021Z,97042.03
2017-12-17T01:42:22.605Z,97038.28
2017-12-17T01:44:50.210Z,97046.59
2017-12-17T01:47:17.786Z,97044.09
2017-12-17T01:49:45.419Z,97041.59
2017-12-17T01:52:13.013Z,97047.52
2017-12-17T01:54:40.775Z,97043.30
2017-12-17T01:57:08.583Z,97050.47
2017-12-17T01:59:36.205Z,97051.72
2017-12-17T02:02:03.837Z,97053.86
2017-12-17T02:04:31.475Z,97048.36
2017-12-17T02:06:59.043Z,97051.77
2017-12-17T02:09:27.396Z,97059.28
2017-12-17T02:11:55.004Z,97053.91
2017-12-17T02:14:22.985Z,97057.66
2017-12-17T02:16:50.635Z,97053.91
2017-12-17T02:19:18.871Z,97042.16
2017-12-17T02:21:46.450Z,97046.80
2017-12-17T02:24:14.042Z,97043.53
2017-12-17T02:26:41.617Z,97048.09
2017-12-17T02:29:09.196Z,97046.86
2017-12-17T02:31:36.850Z,97043.91
2017-12-17T02:34:04.398Z,97043.86
2017-12-17T02:36:32.818Z,97054.66
2017-12-17T02:39:00.402Z,97052.52
2017-12-17T02:41:27.994Z,97061.65
2017-12-17T02:43:55.648Z,97059.20
2017-12-17T02:46:23.226Z,97054.22
2017-12-17T02:48:50.852Z,97065.09
2017-12-17T02:51:18.465Z,97058.10
2017-12-17T02:53:46.077Z,97061.45
2017-12-17T02:56:13.936Z,97063.52
2017-12-17T02:58:41.542Z,97074.70
2017-12-17T03:01:09.108Z,97076.08
2017-12-17T03:03:36.717Z,97066.08
2017-12-17T03:06:04.324Z,97065.27
2017-12-17T03:08:32.229Z,97067.71
2017-12-17T03:10:59.858Z,97076.50
2017-12-17T03:13:27.445Z,97073.14
2017-12-17T03:15:55.065Z,97076.84
2017-12-17T03:18:22.623Z,97073.52
2017-12-17T03:20:50.217Z,97086.50
2017-12-17T03:23:17.845Z,97082.70
2017-12-17T03:25:45.426Z,97089.81
2017-12-17T03:28:13.025Z,97092.27
2017-12-17T03:30:40.668Z,97095.19
2017-12-17T03:33:08.249Z,97091.42
2017-12-17T03:35:36.268Z,97091.50
2017-12-17T03:38:03.840Z,97091.06
2017-12-17T03:40:31.763Z,97087.20
2017-12-17T03:42:59.313Z,97099.32
2017-12-17T03:45:26.898Z,97100.17
2017-12-17T03:47:54.511Z,97092.19
2017-12-17T03:50:22.128Z,97094.73
2017-12-17T03:52:49.732Z,97102.12
2017-12-17T03:55:17.361Z,97100.92
2017-12-17T03:57:45.646Z,97097.55
2017-12-17T04:00:13.194Z,97091.63
2017-12-17T04:02:40.778Z,97098.32
2017-12-17T04:05:08.350Z,97104.61
2017-12-17T04:07:35.988Z,97104.19
2017-12-17T04:10:03.567Z,97104.32
2017-12-17T04:12:31.522Z,97110.55
2017-12-17T04:14:59.109Z,97113.55
2017-12-17T04:17:26.672Z,97104.80
2017-12-17T04:19:54.255Z,97103.92
2017-12-17T04:22:21.827Z,97109.41
2017-12-17T04:24:49.421Z,97115.97
2017-12-17T04:27:17.010Z,97121.79
2017-12-17T04:29:44.750Z,97122.98
2017-12-17T04:32:12.303Z,97118.49
2017-12-17T04:34:39.887Z,97115.11
2017-12-17T04:37:07.457Z,97121.80
2017-12-17T04:39:35.060Z,97121.05
2017-12-17T04:42:02.646Z,97123.91
2017-12-17T04:44:30.687Z,97131.41
2017-12-17T04:46:58.273Z,97133.53
2017-12-17T04:49:25.935Z,97139.39
2017-12-17T04:51:53.558Z,97134.03
2017-12-17T04:54:21.132Z,97129.47
2017-12-17T04:56:48.735Z,97130.65
2017-12-17T04:59:16.319Z,97129.80
2017-12-17T05:01:43.941Z,97139.80
2017-12-17T05:04:11.524Z,97134.90
2017-12-17T05:06:39.120Z,97139.48
2017-12-17T05:09:06.692Z,97138.66
2017-12-17T05:11:34.304Z,97139.80
2017-12-17T05:14:01.877Z,97142.80
2017-12-17T05:16:29.872Z,97146.95
2017-12-17T05:18:57.510Z,97148.97
2017-12-17T05:21:25.130Z,97146.95
2017-12-17T05:23:52.738Z,97148.16
2017-12-17T05:26:20.332Z,97152.08
2017-12-17T05:28:47.976Z,97155.46
2017-12-17T05:31:15.552Z,97159.70
2017-12-17T05:33:43.178Z,97161.38
2017-12-17T05:36:10.774Z,97166.37
2017-12-17T05:38:38.388Z,97171.38
2017-12-17T05:41:06.005Z,97173.07
2017-12-17T05:46:07.540Z,97168.94
2017-12-17T05:48:35.502Z,97169.77
2017-12-17T05:51:03.134Z,97173.52
2017-12-17T05:53:30.722Z,97178.50
2017-12-17T05:55:58.349Z,97176.87
2017-12-17T05:58:25.914Z,97173.94
2017-12-17T06:00:53.576Z,97173.77
2017-12-17T06:03:21.143Z,97183.06
2017-12-17T06:05:48.816Z,97177.63
2017-12-17T06:08:16.412Z,97183.36
2017-12-17T06:10:43.991Z,97184.12
2017-12-17T06:13:11.557Z,97189.17
2017-12-17T06:15:39.206Z,97182.88
2017-12-17T06:18:06.800Z,97190.00
2017-12-17T06:20:34.774Z,97193.30
2017-12-17T06:23:02.344Z,97193.25
2017-12-17T06:25:29.919Z,97199.59
2017-12-17T06:27:57.592Z,97197.98
2017-12-17T06:30:25.174Z,97200.11
2017-12-17T06:32:52.786Z,97205.05
2017-12-17T06:35:20.353Z,97203.41
2017-12-17T06:37:47.941Z,97202.11
2017-12-17T06:40:15.510Z,97202.91
2017-12-17T06:42:43.114Z,97204.92
2017-12-17T06:45:10.674Z,97200.59
2017-12-17T06:47:38.335Z,97217.89
2017-12-17T06:50:05.939Z,97224.95
2017-12-17T06:52:33.513Z,97231.16
2017-12-17T06:55:01.123Z,97235.64
2017-12-17T06:57:28.732Z,97234.06
2017-12-17T06:59:56.314Z,97239.15
2017-12-17T07:02:23.896Z,97227.45
2017-12-17T07:04:51.500Z,97232.02
2017-12-17T07:07:19.067Z,97234.95
2017-12-17T07:09:46.647Z,97234.56
2017-12-17T07:12:14.243Z,97237.06
2017-12-17T07:14:41.862Z,97241.87
2017-12-17T07:17:09.425Z,97250.20
2017-12-17T07:19:37.063Z,97251.75
2017-12-17T07:22:04.666Z,97258.05
2017-12-17T07:24:32.296Z,97255.50
2017-12-17T07:26:59.946Z,97259.86
2017-12-17T07:29:27.542Z,97261.99
2017-12-17T07:31:55.147Z,97253.99
2017-12-17T07:34:22.724Z,97257.36
2017-12-17T07:36:50.332Z,97258.98
2017-12-17T07:39:17.914Z,97263.61
2017-12-17T07:41:45.501Z,97269.48
2017-12-17T07:44:13.105Z,97270.86
2017-12-17T07:46:40.813Z,97268.44
2017-12-17T07:49:08.391Z,97270.63
2017-12-17T07:51:36.249Z,97274.47
2017-12-17T07:54:03.829Z,97286.58
2017-12-17T07:56:31.405Z,97283.89
2017-12-17T07:58:59.007Z,97287.66
2017-12-17T08:01:26.584Z,97286.92
2017-12-17T08:03:54.185Z,97287.41
2017-12-17T08:06:27.836Z,97292.55
2017-12-17T08:08:55.457Z,97293.56
2017-12-17T08:11:23.051Z,97298.62
2017-12-17T08:13:50.670Z,97297.50
2017-12-17T08:16:18.436Z,97296.76
2017-12-17T08:18:46.140Z,97293.02
2017-12-17T08:21:13.707Z,97303.16
2017-12-17T08:23:41.329Z,97301.16
2017-12-17T08:26:08.917Z,97307.09
2017-12-17T08:28:36.512Z,97314.59
2017-12-17T08:31:04.186Z,97308.78
2017-12-17T08:33:31.829Z,97315.83
2017-12-17T08:35:59.445Z,97328.58
2017-12-17T08:38:27.008Z,97328.44
2017-12-17T08:40:54.631Z,97327.56
2017-12-17T08:43:22.244Z,97326.80
2017-12-17T08:45:49.907Z,97330.14
2017-12-17T08:48:17.491Z,97334.02
2017-12-17T08:50:45.234Z,97345.75
2017-12-17T08:53:12.835Z,97348.34
2017-12-17T08:55:40.839Z,97351.70
2017-12-17T08:58:08.403Z,97355.02
2017-12-17T09:00:36.026Z,97363.01
2017-12-17T09:03:03.695Z,97365.02
2017-12-17T09:05:31.301Z,97366.55
2017-12-17T09:07:58.919Z,97365.80
2017-12-17T09:10:26.529Z,97376.36
2017-12-17T09:12:54.173Z,97376.48
2017-12-17T09:15:21.898Z,97380.02
2017-12-17T09:17:49.659Z,97386.69
2017-12-17T09:20:17.282Z,97381.83
2017-12-17T09:22:44.909Z,97389.44
2017-12-17T09:25:12.484Z,97391.39
2017-12-17T09:27:40.098Z,97388.42
2017-12-17T09:30:07.872Z,97392.67
2017-12-17T09:32:35.445Z,97389.94
2017-12-17T09:35:03.093Z,97391.50
2017-12-17T09:37:30.695Z,97399.80
2017-12-17T09:39:58.324Z,97393.85
2017-12-17T09:42:25.918Z,97397.09
2017-12-17T09:44:53.540Z,97389.11
2017-12-17T09:47:21.140Z,97385.05
2017-12-17T09:49:48.756Z,97392.22
2017-12-17T09:52:16.336Z,97396.19
2017-12-17T09:54:43.940Z,97397.58
2017-12-17T09:57:11.598Z,97393.63
2017-12-17T09:59:39.338Z,97390.38
2017-12-17T10:02:06.970Z,97390.54
2017-12-17T10:04:34.589Z,97394.31
2017-12-17T10:07:02.204Z,97388.53
2017-12-17T10:09:29.796Z,97394.20
2017-12-17T10:11:57.427Z,97397.73
2017-12-17T10:14:24.998Z,97402.37
2017-12-17T10:16:52.593Z,97395.33
2017-12-17T10:19:20.157Z,97392.39
2017-12-17T10:21:47.775Z,97399.88
2017-12-17T10:24:15.367Z,97400.30
2017-12-17T10:26:42.935Z,97398.42
2017-12-17T10:29:10.519Z,97406.38
2017-12-17T10:31:38.119Z,97400.34
2017-12-17T10:34:05.718Z,97402.66
2017-12-17T10:36:33.316Z,97404.07
2017-12-17T10:39:00.976Z,97402.33
2017-12-17T10:41:28.579Z,97397.94
2017-12-17T10:43:56.216Z,97406.30
2017-12-17T10:46:23.813Z,97396.38
2017-12-17T10:48:51.444Z,97408.27
2017-12-17T10:51:19.055Z,97403.49
2017-12-17T10:53:46.649Z,97410.69
2017-12-17T10:56:14.276Z,97407.05
2017-12-17T10:58:41.923Z,97406.87
2017-12-17T11:01:09.525Z,97399.78
2017-12-17T11:03:37.115Z,97410.58
2017-12-17T11:06:04.772Z,97404.64
2017-12-17T11:08:32.322Z,97408.61
2017-12-17T11:10:59.954Z,97406.39
2017-12-17T11:13:27.540Z,97398.61
2017-12-17T11:15:55.161Z,97407.34
2017-12-17T11:18:22.779Z,97401.79
2017-12-17T11:20:50.374Z,97401.36
2017-12-17T11:23:17.995Z,97406.39
2017-12-17T11:25:45.996Z,97394.95
2017-12-17T11:28:13.618Z,97405.92
2017-12-17T11:30:41.219Z,97397.98
2017-12-17T11:33:08.824Z,97400.13
2017-12-17T11:35:36.414Z,97399.94
2017-12-17T11:38:04.125Z,97401.15
2017-12-17T11:40:31.715Z,97399.83
2017-12-17T11:42:59.298Z,97399.39
2017-12-17T11:45:26.946Z,97404.39
2017-12-17T11:47:54.556Z,97397.34
2017-12-17T11:50:22.125Z,97393.30
2017-12-17T11:52:49.748Z,97398.23
2017-12-17T11:55:17.340Z,97395.39
2017-12-17T11:57:44.969Z,97397.44
2017-12-17T12:00:12.834Z,97397.91
2017-12-17T12:02:40.438Z,97396.92
2017-12-17T12:05:08.105Z,97392.41
2017-12-17T12:07:35.701Z,97400.52
2017-12-17T12:10:03.327Z,97388.00
2017-12-17T12:12:30.914Z,97400.16
2017-12-17T12:14:58.568Z,97400.59
2017-12-17T12:17:26.137Z,97402.30
2017-12-17T12:19:53.768Z,97405.41
2017-12-17T12:22:21.327Z,97409.31
2017-12-17T12:24:48.947Z,97415.55
2017-12-17T12:27:16.559Z,97414.25
2017-12-17T12:29:44.157Z,97413.81
2017-12-17T12:32:11.783Z,97420.73
2017-12-17T12:34:39.391Z,97421.78
2017-12-17T12:37:07.046Z,97421.64
2017-12-17T12:39:34.624Z,97421.90
2017-12-17T12:42:02.247Z,97417.41
2017-12-17T12:44:29.836Z,97421.47
2017-12-17T12:46:57.465Z,97413.45
2017-12-17T12:49:25.054Z,97415.66
2017-12-17T12:51:52.704Z,97422.73
2017-12-17T12:54:20.319Z,97424.60
2017-12-17T12:56:47.985Z,97424.55
2017-12-17T12:59:15.594Z,97426.16
2017-12-17T13:01:43.309Z,97424.76
2017-12-17T13:04:10.919Z,97434.55
2017-12-17T13:06:38.595Z,97430.73
2017-12-17T13:09:06.297Z,97432.00
2017-12-17T13:11:33.972Z,97431.13
2017-12-17T13:14:01.644Z,97442.31
2017-12-17T13:16:29.344Z,97443.23
2017-12-17T13:18:57.076Z,97445.83
2017-12-17T13:21:24.671Z,97447.15
2017-12-17T13:23:52.415Z,97446.83
2017-12-17T13:26:20.290Z,97448.02
2017-12-17T13:28:48.054Z,97455.52
2017-12-17T13:31:15.696Z,97453.07
2017-12-17T13:33:43.289Z,97457.80
2017-12-17T13:36:10.925Z,97461.13
2017-12-17T13:38:38.702Z,97471.05
2017-12-17T13:41:06.429Z,97468.12
2017-12-17T13:43:34.061Z,97465.39
2017-12-17T13:46:02.739Z,97474.27
2017-12-17T13:48:30.324Z,97468.91
2017-12-17T13:50:57.958Z,97469.45
2017-12-17T13:53:25.535Z,97474.09
